Time;durP1;ratioP1;P1;durP2;ratioP2;P2;SDS_P1;SDS_P2;PMS_P1;PMS_P2;Temp;Humidity;BMP_temperature;BMP_pressure;BME280_temperature;BME280_humidity;BME280_pressure;Samples;Min_cycle;Max_cycle;Signal;HPM_P1;HPM_P2
2024/01/30 00:01:43;;;;;;;29.77;23.70;;;6.70;99.90;;;;;;5137515;27;20053;-78
2024/01/30 00:04:08;;;;;;;27.00;23.40;;;6.70;99.90;;;;;;5137963;27;20487;-79
2024/01/30 00:06:34;;;;;;;28.00;23.27;;;6.70;99.90;;;;;;5137745;27;20399;-79
2024/01/30 00:09:00;;;;;;;29.47;22.17;;;6.70;99.90;;;;;;5137360;27;20035;-79
2024/01/30 00:11:25;;;;;;;28.00;23.83;;;6.70;99.90;;;;;;5137545;27;20059;-79
2024/01/30 00:13:57;;;;;;;27.37;23.20;;;6.70;99.90;;;;;;5137239;27;20478;-78
2024/01/30 00:16:24;;;;;;;32.93;24.93;;;6.70;99.90;;;;;;5137441;27;20143;-79
2024/01/30 00:18:51;;;;;;;33.10;24.67;;;6.70;99.90;;;;;;5137092;27;20387;-79
2024/01/30 00:21:17;;;;;;;29.93;23.60;;;6.70;99.90;;;;;;5136085;27;20368;-79
2024/01/30 00:23:43;;;;;;;28.90;22.57;;;6.70;99.90;;;;;;5137120;27;20629;-75
2024/01/30 00:26:09;;;;;;;29.07;23.30;;;6.70;99.90;;;;;;5137243;27;20283;-79
2024/01/30 00:28:35;;;;;;;30.77;23.67;;;6.70;99.90;;;;;;5137176;27;20126;-79
2024/01/30 00:31:01;;;;;;;27.90;22.47;;;6.70;99.90;;;;;;5136960;27;20055;-79
2024/01/30 00:33:27;;;;;;;30.87;22.47;;;6.60;99.90;;;;;;5136859;27;20363;-79
2024/01/30 00:35:52;;;;;;;30.10;24.07;;;6.70;99.90;;;;;;5136827;27;20046;-79
2024/01/30 00:38:18;;;;;;;29.53;23.83;;;6.70;99.90;;;;;;5149459;27;20142;-79
2024/01/30 00:40:44;;;;;;;29.50;23.83;;;6.70;99.90;;;;;;5157743;27;20115;-79
2024/01/30 00:43:09;;;;;;;31.57;22.33;;;6.70;99.90;;;;;;5139110;27;20047;-78
2024/01/30 00:45:35;;;;;;;29.27;23.47;;;6.60;99.90;;;;;;5157439;27;20034;-78
2024/01/30 00:48:01;;;;;;;29.57;23.07;;;6.70;99.90;;;;;;5156853;27;20038;-78
2024/01/30 00:50:27;;;;;;;30.03;23.37;;;6.60;99.90;;;;;;5155308;27;20046;-78
2024/01/30 00:52:52;;;;;;;31.63;23.97;;;6.70;99.90;;;;;;5155232;27;20095;-77
2024/01/30 00:55:18;;;;;;;28.73;23.10;;;6.60;99.90;;;;;;5136965;27;20547;-78
2024/01/30 00:57:44;;;;;;;33.70;23.53;;;6.60;99.90;;;;;;5155324;27;20042;-77
2024/01/30 01:00:10;;;;;;;28.93;23.20;;;6.60;99.90;;;;;;5155095;27;20434;-77
2024/01/30 01:02:36;;;;;;;27.30;22.27;;;6.60;99.90;;;;;;5155489;27;20087;-77
2024/01/30 01:05:03;;;;;;;28.03;22.47;;;6.60;99.90;;;;;;5156731;27;20275;-78
2024/01/30 01:07:28;;;;;;;28.57;21.50;;;6.60;99.90;;;;;;5157167;27;20121;-78
2024/01/30 01:09:54;;;;;;;29.57;23.33;;;6.60;99.90;;;;;;5156226;27;20414;-78
2024/01/30 01:12:20;;;;;;;33.87;24.43;;;6.60;99.90;;;;;;5157053;27;20103;-78
2024/01/30 01:14:45;;;;;;;29.30;23.03;;;6.60;99.90;;;;;;5156780;27;20057;-78
2024/01/30 01:17:12;;;;;;;27.60;22.50;;;6.60;99.90;;;;;;5156964;27;20129;-78
2024/01/30 01:19:37;;;;;;;30.00;23.98;;;6.60;99.90;;;;;;5156876;27;20474;-78
2024/01/30 01:22:03;;;;;;;30.03;23.17;;;6.60;99.90;;;;;;5138306;27;20061;-78
2024/01/30 01:24:31;;;;;;;29.73;22.87;;;6.60;99.90;;;;;;5156780;27;20043;-78
2024/01/30 01:26:58;;;;;;;30.73;23.97;;;6.60;99.90;;;;;;5138028;27;20070;-78
2024/01/30 01:29:28;;;;;;;29.13;21.77;;;6.60;99.90;;;;;;5138451;27;20282;-78
2024/01/30 01:31:58;;;;;;;32.90;22.60;;;6.60;99.90;;;;;;5156471;27;20754;-78
2024/01/30 01:34:24;;;;;;;27.77;21.50;;;6.60;99.90;;;;;;5156621;27;20363;-78
2024/01/30 01:36:51;;;;;;;29.63;22.63;;;6.60;99.90;;;;;;5156444;27;20323;-78
2024/01/30 01:39:17;;;;;;;31.63;23.07;;;6.60;99.90;;;;;;5156739;27;20333;-78
2024/01/30 01:41:43;;;;;;;31.47;23.20;;;6.60;99.90;;;;;;5156581;27;20286;-79
2024/01/30 01:44:09;;;;;;;28.20;24.07;;;6.70;99.90;;;;;;5156244;27;20357;-78
2024/01/30 01:46:36;;;;;;;29.67;22.90;;;6.60;99.90;;;;;;5156014;27;20276;-78
2024/01/30 01:49:04;;;;;;;29.83;22.27;;;6.60;99.90;;;;;;5156115;27;20363;-78
2024/01/30 01:51:31;;;;;;;29.23;22.13;;;6.60;99.90;;;;;;5156423;27;20276;-78
2024/01/30 01:54:00;;;;;;;28.27;22.43;;;6.70;99.90;;;;;;5156120;27;20284;-77
2024/01/30 01:56:27;;;;;;;26.53;21.70;;;6.70;99.90;;;;;;5156126;27;20276;-77
2024/01/30 01:58:55;;;;;;;33.07;23.63;;;6.70;99.90;;;;;;5155646;27;20794;-76
2024/01/30 02:01:21;;;;;;;28.10;22.20;;;6.70;99.90;;;;;;5156150;27;20314;-77
2024/01/30 02:03:47;;;;;;;28.80;21.67;;;6.70;99.90;;;;;;5156028;27;20340;-77
2024/01/30 02:06:16;;;;;;;29.13;22.08;;;6.70;99.90;;;;;;5155754;27;20280;-77
2024/01/30 02:08:42;;;;;;;28.77;21.50;;;6.60;99.90;;;;;;5155881;27;20038;-78
2024/01/30 02:11:09;;;;;;;28.60;22.67;;;6.70;99.90;;;;;;5155378;27;20850;-78
2024/01/30 02:13:35;;;;;;;32.50;23.90;;;6.60;99.90;;;;;;5155074;27;20275;-78
2024/01/30 02:16:01;;;;;;;30.23;22.00;;;6.60;99.90;;;;;;5155632;27;20287;-78
2024/01/30 02:18:27;;;;;;;29.40;22.23;;;6.60;99.90;;;;;;5155704;27;20067;-78
2024/01/30 02:20:56;;;;;;;33.60;23.03;;;6.60;99.90;;;;;;5137341;27;20054;-78
2024/01/30 02:23:24;;;;;;;29.88;23.50;;;6.60;99.90;;;;;;5155633;27;20054;-78
2024/01/30 02:25:52;;;;;;;29.00;21.53;;;6.60;99.90;;;;;;5154241;27;20502;-78
2024/01/30 02:28:19;;;;;;;26.87;21.13;;;6.60;99.90;;;;;;5155352;27;20355;-78
2024/01/30 02:30:46;;;;;;;27.73;22.60;;;6.60;99.90;;;;;;5155674;27;20276;-78
2024/01/30 02:33:12;;;;;;;28.13;21.25;;;6.70;99.90;;;;;;5155264;27;20367;-78
2024/01/30 02:35:38;;;;;;;24.73;21.97;;;6.60;99.90;;;;;;5155357;27;20035;-78
2024/01/30 02:38:04;;;;;;;33.30;22.87;;;6.60;99.90;;;;;;5136265;27;20331;-77
2024/01/30 02:40:30;;;;;;;29.53;23.27;;;6.60;99.90;;;;;;5155344;27;20133;-78
2024/01/30 02:42:56;;;;;;;28.00;22.90;;;6.60;99.90;;;;;;5155256;27;20324;-78
2024/01/30 02:45:22;;;;;;;29.67;22.40;;;6.60;99.90;;;;;;5136678;27;20282;-78
2024/01/30 02:47:47;;;;;;;28.60;21.70;;;6.60;99.90;;;;;;5155119;27;20275;-79
2024/01/30 02:50:14;;;;;;;29.73;22.83;;;6.60;99.90;;;;;;5154904;27;20127;-78
2024/01/30 02:52:40;;;;;;;27.43;21.57;;;6.60;99.90;;;;;;5136873;27;20050;-79
2024/01/30 02:55:07;;;;;;;28.70;21.70;;;6.60;99.90;;;;;;5154785;27;20342;-78
2024/01/30 02:57:32;;;;;;;29.67;21.57;;;6.60;99.90;;;;;;5154923;27;20034;-78
2024/01/30 02:59:58;;;;;;;29.00;22.13;;;6.60;99.90;;;;;;5154917;27;20340;-78
2024/01/30 03:02:24;;;;;;;27.57;22.63;;;6.60;99.90;;;;;;5154934;27;20047;-78
2024/01/30 03:04:50;;;;;;;27.00;21.07;;;6.60;99.90;;;;;;5154924;27;20038;-78
2024/01/30 03:07:15;;;;;;;27.17;22.53;;;6.70;99.90;;;;;;5154334;27;20435;-78
2024/01/30 03:09:44;;;;;;;26.67;22.13;;;6.70;99.90;;;;;;5154843;27;20038;-78
2024/01/30 03:12:10;;;;;;;32.77;20.97;;;6.70;99.90;;;;;;5154278;27;20046;-78
2024/01/30 03:14:36;;;;;;;27.23;21.80;;;6.70;99.90;;;;;;5154775;27;20291;-78
2024/01/30 03:17:02;;;;;;;26.20;21.10;;;6.70;99.90;;;;;;5154525;27;20047;-77
2024/01/30 03:19:28;;;;;;;30.23;22.50;;;6.70;99.90;;;;;;5154633;27;20035;-78
2024/01/30 03:21:53;;;;;;;27.03;20.93;;;6.80;99.90;;;;;;5154385;27;20295;-78
2024/01/30 03:24:19;;;;;;;28.70;22.03;;;6.80;99.90;;;;;;5136220;27;20050;-78
2024/01/30 03:26:45;;;;;;;24.10;21.07;;;6.80;99.90;;;;;;5154611;27;20131;-78
2024/01/30 03:29:10;;;;;;;28.83;21.93;;;6.70;99.90;;;;;;5154408;27;20042;-78
2024/01/30 03:31:36;;;;;;;26.23;20.83;;;6.80;99.90;;;;;;5154589;27;20039;-78
2024/01/30 03:34:02;;;;;;;28.00;21.17;;;6.70;99.90;;;;;;5154595;27;20493;-78
2024/01/30 03:36:28;;;;;;;28.37;19.77;;;6.80;99.90;;;;;;5154465;27;20071;-78
2024/01/30 03:38:54;;;;;;;26.33;21.73;;;6.80;99.90;;;;;;5154579;27;20074;-78
2024/01/30 03:41:20;;;;;;;27.63;21.70;;;6.80;99.90;;;;;;5154383;27;20404;-77
2024/01/30 03:43:47;;;;;;;28.07;20.80;;;6.80;99.90;;;;;;5154274;27;20039;-77
2024/01/30 03:46:13;;;;;;;25.60;20.53;;;6.80;99.90;;;;;;5154251;27;20332;-77
2024/01/30 03:48:39;;;;;;;27.50;21.33;;;6.80;99.90;;;;;;5154758;27;20277;-77
2024/01/30 03:51:05;;;;;;;28.27;20.77;;;6.80;99.90;;;;;;5153843;27;20775;-76
2024/01/30 03:53:31;;;;;;;28.27;20.67;;;6.80;99.90;;;;;;5136146;27;20295;-78
2024/01/30 03:55:57;;;;;;;26.13;20.17;;;6.90;99.90;;;;;;5154350;27;20390;-78
2024/01/30 03:58:22;;;;;;;25.20;20.53;;;6.90;99.90;;;;;;5154064;27;20039;-77
2024/01/30 04:00:48;;;;;;;27.83;20.40;;;6.80;99.90;;;;;;5154325;27;20280;-77
2024/01/30 04:03:17;;;;;;;26.07;20.33;;;6.90;99.90;;;;;;5154126;27;20452;-77
2024/01/30 04:05:43;;;;;;;26.70;20.40;;;6.80;99.90;;;;;;5154244;27;20091;-78
2024/01/30 04:08:09;;;;;;;24.30;20.90;;;6.90;99.90;;;;;;5154150;27;20284;-77
2024/01/30 04:10:35;;;;;;;24.67;19.50;;;6.80;99.90;;;;;;5154263;27;20138;-78
2024/01/30 04:13:00;;;;;;;26.87;19.00;;;6.80;99.90;;;;;;5154202;27;20311;-78
2024/01/30 04:15:27;;;;;;;26.83;19.97;;;6.80;99.90;;;;;;5154028;27;20065;-78
2024/01/30 04:17:53;;;;;;;26.17;20.50;;;6.80;99.90;;;;;;5118773;27;20042;-78
2024/01/30 04:20:19;;;;;;;24.30;19.63;;;6.80;99.90;;;;;;5153927;27;20362;-78
2024/01/30 04:22:46;;;;;;;26.87;19.63;;;6.80;99.90;;;;;;5154066;27;20074;-79
2024/01/30 04:25:14;;;;;;;26.53;19.27;;;6.90;99.90;;;;;;5153877;27;20050;-78
2024/01/30 04:27:40;;;;;;;22.23;18.53;;;6.90;99.90;;;;;;5154077;27;20276;-78
2024/01/30 04:30:06;;;;;;;23.90;18.43;;;6.90;99.90;;;;;;5154117;27;20771;-79
2024/01/30 04:32:32;;;;;;;21.87;18.57;;;6.90;99.90;;;;;;5135314;27;20478;-79
2024/01/30 04:34:58;;;;;;;28.50;18.10;;;6.90;99.90;;;;;;5153996;27;20367;-79
2024/01/30 04:37:24;;;;;;;23.67;17.97;;;7.00;99.90;;;;;;5156968;27;20376;-79
2024/01/30 04:39:50;;;;;;;22.63;18.37;;;7.00;99.90;;;;;;5157734;27;20057;-79
2024/01/30 04:42:17;;;;;;;22.80;17.57;;;7.00;99.90;;;;;;5157423;27;20280;-79
2024/01/30 04:44:43;;;;;;;25.60;17.53;;;7.00;99.90;;;;;;5157563;27;20288;-79
2024/01/30 04:47:11;;;;;;;25.10;17.70;;;7.00;99.90;;;;;;5138895;27;20328;-79
2024/01/30 04:49:36;;;;;;;21.53;17.23;;;7.00;99.90;;;;;;5156960;27;20053;-79
2024/01/30 04:52:02;;;;;;;25.50;17.87;;;7.00;99.90;;;;;;5137701;27;20767;-78
2024/01/30 04:54:28;;;;;;;24.30;17.80;;;7.00;99.90;;;;;;5156352;27;20050;-77
2024/01/30 04:56:54;;;;;;;20.53;16.43;;;7.00;99.90;;;;;;5156497;27;20062;-77
2024/01/30 04:59:19;;;;;;;23.07;18.47;;;7.00;99.90;;;;;;5156163;27;20039;-78
2024/01/30 05:01:45;;;;;;;25.10;16.73;;;7.10;99.90;;;;;;5137906;27;20138;-78
2024/01/30 05:04:11;;;;;;;23.13;16.60;;;7.10;99.90;;;;;;5156328;27;20115;-79
2024/01/30 05:06:37;;;;;;;20.93;16.00;;;7.10;99.90;;;;;;5157092;27;20049;-79
2024/01/30 05:09:04;;;;;;;22.97;16.43;;;7.10;99.90;;;;;;5157207;27;20045;-79
2024/01/30 05:11:30;;;;;;;21.33;16.07;;;7.10;99.90;;;;;;5156575;27;20122;-78
2024/01/30 05:13:56;;;;;;;22.00;15.80;;;7.20;99.90;;;;;;5156705;27;20785;-79
2024/01/30 05:16:21;;;;;;;20.77;15.40;;;7.20;99.90;;;;;;5156817;27;20351;-78
2024/01/30 05:18:47;;;;;;;20.83;16.33;;;7.20;99.90;;;;;;5156930;27;20085;-78
2024/01/30 05:21:13;;;;;;;19.67;15.87;;;7.20;99.90;;;;;;5156897;27;20439;-79
2024/01/30 05:23:40;;;;;;;23.37;16.10;;;7.20;99.90;;;;;;5138844;27;20099;-78
2024/01/30 05:26:05;;;;;;;20.97;15.70;;;7.20;99.90;;;;;;5156923;27;20059;-79
2024/01/30 05:28:32;;;;;;;21.33;16.37;;;7.20;99.90;;;;;;5156619;27;20284;-78
2024/01/30 05:30:58;;;;;;;21.07;15.60;;;7.20;99.90;;;;;;5156979;27;20043;-79
2024/01/30 05:33:24;;;;;;;18.90;15.73;;;7.20;99.90;;;;;;5156453;27;20624;-79
2024/01/30 05:35:49;;;;;;;20.97;15.40;;;7.20;99.90;;;;;;5156655;27;20111;-79
2024/01/30 05:38:18;;;;;;;20.17;15.57;;;7.20;99.90;;;;;;5156473;27;20471;-75
2024/01/30 05:40:44;;;;;;;18.57;15.30;;;7.20;99.90;;;;;;5156457;27;20050;-79
2024/01/30 05:43:09;;;;;;;20.93;16.13;;;7.20;99.90;;;;;;5156178;27;20340;-79
2024/01/30 05:45:36;;;;;;;21.90;16.20;;;7.20;99.90;;;;;;5156214;27;20045;-79
2024/01/30 05:48:01;;;;;;;19.27;15.27;;;7.20;99.90;;;;;;5155214;27;20122;-79
2024/01/30 05:50:27;;;;;;;22.03;16.50;;;7.20;99.90;;;;;;5156163;27;20350;-79
2024/01/30 05:52:53;;;;;;;20.33;15.40;;;7.20;99.90;;;;;;5156252;27;20045;-79
2024/01/30 05:55:19;;;;;;;20.47;15.90;;;7.20;99.90;;;;;;5136482;27;20047;-79
2024/01/30 05:57:44;;;;;;;22.47;15.97;;;7.20;99.90;;;;;;5156111;27;20038;-79
2024/01/30 06:00:10;;;;;;;22.87;16.33;;;7.20;99.90;;;;;;5156142;27;20043;-80
2024/01/30 06:02:36;;;;;;;24.40;16.80;;;7.20;99.90;;;;;;5155957;27;20121;-79
2024/01/30 06:05:02;;;;;;;22.23;16.00;;;7.20;99.90;;;;;;5156206;27;20747;-79
2024/01/30 06:07:28;;;;;;;22.17;15.43;;;7.30;99.90;;;;;;5155923;27;20398;-79
2024/01/30 06:09:54;;;;;;;21.20;15.73;;;7.30;99.90;;;;;;5155948;27;20456;-79
2024/01/30 06:12:19;;;;;;;21.77;15.77;;;7.30;99.90;;;;;;5155873;27;20506;-77
2024/01/30 06:14:45;;;;;;;20.50;16.00;;;7.40;99.90;;;;;;5155878;27;20047;-79
2024/01/30 06:17:11;;;;;;;21.03;16.50;;;7.30;99.90;;;;;;5155801;27;20053;-79
2024/01/30 06:19:38;;;;;;;21.87;16.70;;;7.30;99.90;;;;;;5155516;27;20047;-79
2024/01/30 06:22:05;;;;;;;22.13;16.03;;;7.40;99.90;;;;;;5155735;27;20291;-79
2024/01/30 06:24:30;;;;;;;19.50;15.07;;;7.40;99.90;;;;;;5155491;27;20766;-79
2024/01/30 06:26:56;;;;;;;22.70;16.77;;;7.40;99.90;;;;;;5155659;27;20284;-79
2024/01/30 06:29:24;;;;;;;18.07;14.97;;;7.40;99.90;;;;;;5155422;27;20047;-79
2024/01/30 06:31:50;;;;;;;19.93;16.07;;;7.50;99.90;;;;;;5155785;27;20050;-79
2024/01/30 06:34:16;;;;;;;24.87;15.83;;;7.50;99.90;;;;;;5155122;27;20348;-79
2024/01/30 06:36:42;;;;;;;23.30;16.57;;;7.50;99.90;;;;;;5155236;27;20050;-79
2024/01/30 06:39:07;;;;;;;19.00;15.20;;;7.50;99.90;;;;;;5155559;27;20043;-79
2024/01/30 06:41:34;;;;;;;19.97;14.90;;;7.40;99.90;;;;;;5136717;27;20219;-79
2024/01/30 06:44:01;;;;;;;23.70;16.13;;;7.50;99.90;;;;;;5155348;27;20047;-80
2024/01/30 06:46:27;;;;;;;19.03;15.77;;;7.50;99.90;;;;;;5155228;27;20280;-79
2024/01/30 06:48:53;;;;;;;22.37;16.47;;;7.50;99.90;;;;;;5155241;27;20628;-79
2024/01/30 06:51:19;;;;;;;20.47;15.47;;;7.50;99.90;;;;;;5136798;27;20130;-79
2024/01/30 06:53:44;;;;;;;22.30;14.93;;;7.50;99.90;;;;;;5154927;27;20050;-79
2024/01/30 06:56:10;;;;;;;18.13;15.47;;;7.50;99.90;;;;;;5155292;27;20094;-79
2024/01/30 06:58:36;;;;;;;18.43;15.10;;;7.50;99.90;;;;;;5136146;27;20362;-79
2024/01/30 07:01:02;;;;;;;19.53;15.03;;;7.50;99.90;;;;;;5155009;27;20061;-80
2024/01/30 07:03:28;;;;;;;22.00;15.93;;;7.50;99.90;;;;;;5154858;27;20095;-79
2024/01/30 07:05:53;;;;;;;21.23;15.10;;;7.50;99.90;;;;;;5154973;27;20043;-80
2024/01/30 07:08:19;;;;;;;22.43;16.03;;;7.50;99.90;;;;;;5155023;27;20043;-79
2024/01/30 07:10:45;;;;;;;22.07;15.37;;;7.50;99.90;;;;;;5154725;27;20115;-79
2024/01/30 07:13:16;;;;;;;20.23;15.07;;;7.50;99.90;;;;;;5136668;27;20122;-80
2024/01/30 07:15:42;;;;;;;19.90;14.97;;;7.50;99.90;;;;;;5154607;27;20050;-79
2024/01/30 07:18:09;;;;;;;16.70;13.27;;;7.60;99.90;;;;;;5136311;27;20323;-79
2024/01/30 07:20:35;;;;;;;19.80;14.80;;;7.60;99.90;;;;;;5154665;27;20329;-79
2024/01/30 07:23:02;;;;;;;15.87;13.57;;;7.60;99.90;;;;;;5154709;27;20284;-79
2024/01/30 07:25:29;;;;;;;21.03;15.07;;;7.60;99.90;;;;;;5136249;27;20054;-78
2024/01/30 07:27:55;;;;;;;18.97;15.07;;;7.60;99.90;;;;;;5154644;27;20358;-80
2024/01/30 07:30:21;;;;;;;19.63;14.40;;;7.60;99.90;;;;;;5154728;27;20304;-79
2024/01/30 07:32:47;;;;;;;21.63;15.23;;;7.60;99.90;;;;;;5154468;27;20323;-79
2024/01/30 07:35:13;;;;;;;18.73;14.53;;;7.60;99.90;;;;;;5154575;27;20046;-79
2024/01/30 07:37:39;;;;;;;22.37;14.07;;;7.60;99.90;;;;;;5153932;27;20577;-78
2024/01/30 07:40:06;;;;;;;18.10;14.03;;;7.60;99.90;;;;;;5154520;27;20295;-79
2024/01/30 07:42:32;;;;;;;19.63;14.73;;;7.60;99.90;;;;;;5154396;27;20087;-79
2024/01/30 07:44:58;;;;;;;25.07;14.67;;;7.70;99.90;;;;;;5136304;27;20298;-79
2024/01/30 07:47:24;;;;;;;17.73;14.37;;;7.70;99.90;;;;;;5154505;27;20276;-79
2024/01/30 07:49:51;;;;;;;21.97;14.70;;;7.70;99.90;;;;;;5154322;27;20041;-79
2024/01/30 07:52:16;;;;;;;20.33;14.30;;;7.70;99.90;;;;;;5154599;27;20047;-79
2024/01/30 07:54:49;;;;;;;18.17;14.43;;;7.70;99.90;;;;;;5135933;27;20363;-79
2024/01/30 07:57:14;;;;;;;21.40;14.57;;;7.70;99.90;;;;;;5154396;27;20085;-78
2024/01/30 07:59:43;;;;;;;18.10;14.57;;;7.60;99.90;;;;;;5135693;27;20326;-79
2024/01/30 08:02:09;;;;;;;20.03;14.00;;;7.70;99.90;;;;;;5154542;27;20129;-81
2024/01/30 08:04:35;;;;;;;21.30;14.03;;;7.70;99.90;;;;;;5135926;27;20326;-79
2024/01/30 08:07:01;;;;;;;20.30;14.50;;;7.70;99.90;;;;;;5154342;27;20498;-80
2024/01/30 08:09:27;;;;;;;19.93;13.63;;;7.70;99.90;;;;;;5154325;27;20039;-81
2024/01/30 08:11:53;;;;;;;18.80;14.07;;;7.70;99.90;;;;;;5157095;27;20043;-80
2024/01/30 08:14:18;;;;;;;21.43;14.47;;;7.70;99.90;;;;;;5158657;27;20038;-80
2024/01/30 08:16:44;;;;;;;17.53;13.70;;;7.70;99.90;;;;;;5158080;27;20051;-80
2024/01/30 08:19:10;;;;;;;18.30;14.10;;;7.70;99.90;;;;;;5139302;27;20066;-80
2024/01/30 08:21:36;;;;;;;18.30;13.63;;;7.70;99.90;;;;;;5157907;27;20046;-79
2024/01/30 08:24:05;;;;;;;18.30;13.47;;;7.70;99.90;;;;;;5158103;27;20501;-78
2024/01/30 08:26:31;;;;;;;18.87;13.87;;;7.70;99.90;;;;;;5158117;27;20039;-78
2024/01/30 08:28:57;;;;;;;18.77;13.53;;;7.80;99.90;;;;;;5157812;27;20280;-77
2024/01/30 08:31:23;;;;;;;17.77;13.73;;;7.80;99.90;;;;;;5157947;27;20673;-78
2024/01/30 08:33:49;;;;;;;18.10;14.30;;;7.80;99.90;;;;;;5157738;27;20049;-78
2024/01/30 08:36:16;;;;;;;17.13;13.53;;;7.80;99.90;;;;;;5157758;27;20541;-78
2024/01/30 08:38:42;;;;;;;18.70;13.37;;;7.90;99.90;;;;;;5157656;27;20073;-78
2024/01/30 08:41:08;;;;;;;18.10;13.60;;;7.90;99.90;;;;;;5157696;27;20390;-78
2024/01/30 08:43:34;;;;;;;17.70;13.40;;;7.90;99.90;;;;;;5157734;27;20514;-78
2024/01/30 08:46:00;;;;;;;21.13;14.30;;;7.90;99.90;;;;;;5157755;27;20050;-77
2024/01/30 08:48:27;;;;;;;17.00;14.43;;;7.90;99.90;;;;;;5157635;27;20758;-78
2024/01/30 08:50:53;;;;;;;19.10;14.53;;;8.00;99.90;;;;;;5157403;27;20276;-78
2024/01/30 08:53:19;;;;;;;20.17;14.63;;;8.00;99.90;;;;;;5157449;27;20770;-78
2024/01/30 08:55:45;;;;;;;18.50;14.20;;;8.00;99.90;;;;;;5138927;27;20276;-78
2024/01/30 08:58:10;;;;;;;21.80;14.40;;;8.00;99.90;;;;;;5157326;27;20299;-78
2024/01/30 09:00:36;;;;;;;22.50;14.93;;;8.10;99.90;;;;;;5157344;27;20284;-75
2024/01/30 09:03:03;;;;;;;17.30;14.33;;;8.20;99.90;;;;;;5157523;27;20046;-78
2024/01/30 09:05:29;;;;;;;23.93;15.07;;;8.20;99.90;;;;;;5157270;27;20047;-77
2024/01/30 09:07:54;;;;;;;18.10;13.90;;;8.30;99.90;;;;;;5138264;27;20368;-79
2024/01/30 09:10:20;;;;;;;21.13;14.20;;;8.30;99.90;;;;;;5139162;27;20055;-79
2024/01/30 09:12:46;;;;;;;20.63;14.40;;;8.30;99.90;;;;;;5138697;27;20064;-78
2024/01/30 09:15:12;;;;;;;19.57;14.90;;;8.30;99.90;;;;;;5156814;27;20506;-79
2024/01/30 09:17:38;;;;;;;23.07;14.20;;;8.30;99.90;;;;;;5156840;27;20323;-77
2024/01/30 09:20:05;;;;;;;18.93;14.67;;;8.40;99.90;;;;;;5138772;27;20058;-80
2024/01/30 09:22:31;;;;;;;19.57;14.23;;;8.40;99.90;;;;;;5156680;27;20051;-81
2024/01/30 09:24:57;;;;;;;20.97;14.47;;;8.40;99.90;;;;;;5156698;27;20308;-77
2024/01/30 09:27:23;;;;;;;20.90;15.67;;;8.40;99.90;;;;;;5156908;27;20351;-78
2024/01/30 09:29:49;;;;;;;19.30;14.67;;;8.40;99.90;;;;;;5156637;27;20849;-77
2024/01/30 09:32:15;;;;;;;19.53;15.60;;;8.40;99.90;;;;;;5156736;27;20371;-77
2024/01/30 09:34:41;;;;;;;21.07;15.17;;;8.50;99.90;;;;;;5138018;27;20288;-75
2024/01/30 09:37:07;;;;;;;23.47;15.23;;;8.50;99.90;;;;;;5156617;27;20046;-78
2024/01/30 09:39:33;;;;;;;21.53;15.00;;;8.60;99.90;;;;;;5156752;27;20322;-78
2024/01/30 09:42:05;;;;;;;27.50;16.13;;;8.60;99.90;;;;;;5156355;27;20300;-79
2024/01/30 09:44:34;;;;;;;19.60;14.57;;;8.60;99.90;;;;;;5156589;27;20047;-79
2024/01/30 09:47:03;;;;;;;18.87;14.80;;;8.60;99.90;;;;;;5156273;27;20279;-79
2024/01/30 09:49:33;;;;;;;20.70;14.90;;;8.60;99.90;;;;;;5138212;27;20283;-78
2024/01/30 09:52:00;;;;;;;22.20;14.47;;;8.70;99.90;;;;;;5156153;27;20283;-80
2024/01/30 09:54:26;;;;;;;19.20;13.77;;;8.70;99.90;;;;;;5138114;27;20292;-80
2024/01/30 09:56:51;;;;;;;19.87;14.03;;;8.70;99.90;;;;;;5155764;27;20396;-85
2024/01/30 09:59:17;;;;;;;24.37;15.17;;;8.70;99.90;;;;;;5120637;27;20489;-89
2024/01/30 10:01:43;;;;;;;22.80;16.13;;;8.70;99.90;;;;;;5156102;27;20133;-75
2024/01/30 10:04:09;;;;;;;29.00;15.27;;;8.70;99.90;;;;;;5156410;27;20042;-77
2024/01/30 10:06:36;;;;;;;22.10;15.23;;;8.70;99.90;;;;;;5155854;27;20482;-77
2024/01/30 10:09:02;;;;;;;20.03;14.27;;;8.80;99.90;;;;;;5137359;27;20316;-76
2024/01/30 10:11:27;;;;;;;22.33;16.57;;;8.80;99.90;;;;;;5156006;27;20287;-77
2024/01/30 10:13:53;;;;;;;23.97;14.80;;;8.80;99.90;;;;;;5155658;27;20620;-79
2024/01/30 10:16:19;;;;;;;21.60;15.10;;;8.80;99.90;;;;;;5155586;27;20167;-78
2024/01/30 10:18:44;;;;;;;23.43;14.23;;;8.90;99.90;;;;;;5155827;27;20079;-79
2024/01/30 10:21:10;;;;;;;19.27;12.77;;;8.90;99.90;;;;;;5137054;27;20053;-78
2024/01/30 10:23:38;;;;;;;19.43;12.53;;;9.00;99.90;;;;;;5155764;27;20054;-78
2024/01/30 10:26:07;;;;;;;19.90;12.60;;;9.10;99.90;;;;;;5155519;27;20038;-79
2024/01/30 10:28:33;;;;;;;18.97;12.70;;;9.20;99.90;;;;;;5155678;27;20280;-79
2024/01/30 10:31:00;;;;;;;19.17;13.17;;;9.30;99.90;;;;;;5137137;27;20292;-79
2024/01/30 10:33:27;;;;;;;18.30;11.37;;;9.30;99.90;;;;;;5154940;27;20046;-79
2024/01/30 10:36:00;;;;;;;17.93;11.47;;;9.40;99.90;;;;;;5155328;27;20669;-77
2024/01/30 10:38:29;;;;;;;16.93;11.77;;;9.40;99.90;;;;;;5136871;27;20731;-77
2024/01/30 10:41:01;;;;;;;19.83;12.57;;;9.50;99.90;;;;;;5155173;27;20272;-76
2024/01/30 10:43:40;;;;;;;17.33;10.97;;;9.50;99.90;;;;;;5155577;27;20311;-79
2024/01/30 10:46:12;;;;;;;25.13;11.00;;;9.50;99.90;;;;;;5155109;27;20345;-79
2024/01/30 10:48:44;;;;;;;18.53;11.40;;;9.50;99.90;;;;;;5155494;27;20264;-80
2024/01/30 10:51:12;;;;;;;19.27;10.20;;;9.50;99.90;;;;;;5155176;27;20328;-80
2024/01/30 10:53:39;;;;;;;17.33;9.97;;;9.50;99.90;;;;;;5136831;27;20655;-81
2024/01/30 10:56:05;;;;;;;19.77;10.97;;;9.50;99.90;;;;;;5136764;27;20433;-75
2024/01/30 10:58:31;;;;;;;19.13;10.37;;;9.50;99.90;;;;;;5155383;27;20292;-77
2024/01/30 11:00:58;;;;;;;19.17;9.57;;;9.50;99.90;;;;;;5154612;27;20789;-75
2024/01/30 11:03:24;;;;;;;18.57;10.43;;;9.50;99.90;;;;;;5136638;27;20043;-78
2024/01/30 11:05:51;;;;;;;19.07;10.33;;;9.50;99.90;;;;;;5154871;27;20367;-76
2024/01/30 11:08:28;;;;;;;16.17;8.53;;;9.50;99.90;;;;;;5119681;27;20279;-75
2024/01/30 11:10:58;;;;;;;21.03;8.70;;;9.50;99.90;;;;;;5154843;27;20317;-79
2024/01/30 11:13:29;;;;;;;14.80;7.20;;;9.50;99.90;;;;;;5154553;27;20763;-75
2024/01/30 11:15:54;;;;;;;16.57;5.83;;;9.50;99.90;;;;;;5154409;27;20276;-77
2024/01/30 11:18:29;;;;;;;21.50;6.00;;;9.50;99.90;;;;;;5154530;27;20374;-77
2024/01/30 11:21:01;;;;;;;14.30;5.25;;;9.50;99.90;;;;;;5154399;27;20043;-76
2024/01/30 11:23:33;;;;;;;10.33;3.43;;;9.50;99.90;;;;;;5154873;27;20439;-77
2024/01/30 11:25:59;;;;;;;14.10;5.37;;;9.50;99.90;;;;;;5154673;27;20684;-77
2024/01/30 11:28:31;;;;;;;9.40;3.43;;;9.50;99.90;;;;;;5154700;27;20315;-77
2024/01/30 11:31:03;;;;;;;8.60;3.27;;;9.60;99.90;;;;;;5154562;27;20496;-77
2024/01/30 11:33:30;;;;;;;5.87;2.10;;;9.60;99.90;;;;;;5154893;27;20275;-77
2024/01/30 11:36:01;;;;;;;8.97;2.47;;;9.50;99.90;;;;;;5154535;27;20292;-76
2024/01/30 11:38:28;;;;;;;10.10;2.50;;;9.40;99.90;;;;;;5154215;27;20771;-76
2024/01/30 11:40:57;;;;;;;7.77;2.87;;;9.40;99.90;;;;;;5154533;27;20288;-74
2024/01/30 11:43:23;;;;;;;11.47;2.47;;;9.40;99.90;;;;;;5154640;27;20284;-77
2024/01/30 11:45:50;;;;;;;8.37;2.80;;;9.40;99.90;;;;;;5155883;27;20275;-77
2024/01/30 11:48:15;;;;;;;10.53;3.07;;;9.40;99.90;;;;;;5158627;27;20268;-77
2024/01/30 11:50:41;;;;;;;8.43;2.60;;;9.30;99.90;;;;;;5158762;27;20291;-77
2024/01/30 11:53:07;;;;;;;7.27;2.23;;;9.30;99.90;;;;;;5158316;27;20053;-76
2024/01/30 11:55:35;;;;;;;8.40;3.33;;;9.30;99.90;;;;;;5158712;27;20054;-77
2024/01/30 11:58:01;;;;;;;9.80;2.70;;;9.30;99.90;;;;;;5158414;27;20647;-76
2024/01/30 12:00:27;;;;;;;9.13;2.93;;;9.30;99.90;;;;;;5158577;27;20282;-76
2024/01/30 12:02:57;;;;;;;11.13;6.43;;;9.30;99.90;;;;;;5140313;27;20386;-76
2024/01/30 12:05:26;;;;;;;7.03;2.37;;;9.30;99.90;;;;;;5158504;27;20073;-76
2024/01/30 12:07:53;;;;;;;13.87;2.93;;;9.30;99.90;;;;;;5158456;27;20743;-76
2024/01/30 12:10:19;;;;;;;12.00;2.43;;;9.30;99.90;;;;;;5158174;27;20357;-76
2024/01/30 12:12:49;;;;;;;6.90;2.37;;;9.30;99.90;;;;;;5140260;27;20755;-76
2024/01/30 12:15:16;;;;;;;5.73;2.00;;;9.30;99.90;;;;;;5158101;27;20309;-76
2024/01/30 12:17:42;;;;;;;7.57;1.80;;;9.30;99.90;;;;;;5158170;27;20284;-76
2024/01/30 12:20:10;;;;;;;11.03;2.60;;;9.30;99.90;;;;;;5158051;27;20333;-76
2024/01/30 12:22:43;;;;;;;9.37;2.73;;;9.30;99.90;;;;;;5157881;27;20534;-77
2024/01/30 12:25:13;;;;;;;7.93;1.87;;;9.40;99.90;;;;;;5158971;27;20286;-80
2024/01/30 12:27:42;;;;;;;7.57;2.17;;;9.40;99.90;;;;;;5141490;27;20333;-77
2024/01/30 12:30:09;;;;;;;8.73;2.13;;;9.40;99.90;;;;;;5157852;27;20714;-80
2024/01/30 12:32:40;;;;;;;6.17;1.80;;;9.50;99.90;;;;;;5157930;27;20291;-76
2024/01/30 12:35:13;;;;;;;5.63;1.60;;;9.50;99.90;;;;;;5157644;27;20312;-75